createdAt,value
2023-06-10T00:00:32.959Z,7.57
2023-06-10T00:03:03.493Z,8.15
2023-06-10T00:05:33.862Z,8.23
2023-06-10T00:08:08.315Z,8.23
2023-06-10T00:10:42.132Z,7.93
2023-06-10T00:13:12.594Z,7.80
2023-06-10T00:15:45.110Z,7.75
2023-06-10T00:18:15.598Z,7.53
2023-06-10T00:20:45.448Z,8.55
2023-06-10T00:23:15.395Z,7.38
2023-06-10T00:25:48.022Z,8.07
2023-06-10T00:28:17.935Z,8.00
2023-06-10T00:30:48.057Z,8.25
2023-06-10T00:33:18.055Z,8.23
2023-06-10T00:35:47.992Z,7.82
2023-06-10T00:38:18.462Z,8.10
2023-06-10T00:40:51.031Z,7.68
2023-06-10T00:43:21.013Z,7.95
2023-06-10T00:45:51.032Z,7.60
2023-06-10T00:48:21.834Z,8.55
2023-06-10T00:50:52.598Z,8.07
2023-06-10T00:53:23.074Z,7.78
2023-06-10T00:55:55.877Z,7.60
2023-06-10T00:58:27.092Z,8.38
2023-06-10T01:00:57.210Z,7.60
2023-06-10T01:03:27.283Z,7.85
2023-06-10T01:06:04.981Z,8.00
2023-06-10T01:08:43.082Z,8.27
2023-06-10T01:11:21.757Z,7.47
2023-06-10T01:13:55.212Z,8.02
2023-06-10T01:16:26.767Z,8.13
2023-06-10T01:18:56.857Z,7.63
2023-06-10T01:21:29.454Z,7.90
2023-06-10T01:24:00.418Z,7.97
2023-06-10T01:26:34.998Z,8.38
2023-06-10T01:29:11.659Z,8.63
2023-06-10T01:31:47.019Z,8.60
2023-06-10T01:34:20.605Z,7.53
2023-06-10T01:36:54.971Z,8.43
2023-06-10T01:39:27.964Z,8.60
2023-06-10T01:41:58.565Z,8.32
2023-06-10T01:44:28.600Z,8.63
2023-06-10T01:46:58.605Z,8.38
2023-06-10T01:49:29.972Z,8.55
2023-06-10T01:52:02.561Z,8.57
2023-06-10T01:54:32.604Z,9.25
2023-06-10T01:57:05.114Z,8.93
2023-06-10T01:59:35.063Z,9.50
2023-06-10T02:02:05.357Z,9.90
2023-06-10T02:04:35.382Z,9.45
2023-06-10T02:07:08.662Z,9.13
2023-06-10T02:09:40.975Z,9.05
2023-06-10T02:12:13.460Z,9.40
2023-06-10T02:14:44.511Z,9.50
2023-06-10T02:17:16.006Z,10.13
2023-06-10T02:19:54.065Z,9.25
2023-06-10T02:22:27.616Z,10.27
2023-06-10T02:24:57.605Z,10.15
2023-06-10T02:27:27.557Z,9.93
2023-06-10T02:29:57.429Z,10.10
2023-06-10T02:32:27.454Z,9.77
2023-06-10T02:34:57.440Z,10.70
2023-06-10T02:37:30.062Z,10.00
2023-06-10T02:39:59.986Z,10.45
2023-06-10T02:42:29.940Z,10.15
2023-06-10T02:45:00.448Z,10.05
2023-06-10T02:47:30.361Z,10.65
2023-06-10T02:50:00.267Z,10.40
2023-06-10T02:52:32.776Z,11.15
2023-06-10T02:55:02.730Z,11.15
2023-06-10T02:57:32.701Z,11.48
2023-06-10T03:00:05.236Z,11.23
2023-06-10T03:02:38.367Z,11.27
2023-06-10T03:05:11.674Z,11.88
2023-06-10T03:07:44.625Z,12.30
2023-06-10T03:10:14.625Z,11.10
2023-06-10T03:12:44.545Z,12.05
2023-06-10T03:15:15.359Z,11.00
2023-06-10T03:17:45.569Z,11.13
2023-06-10T03:20:18.050Z,11.98
2023-06-10T03:22:50.995Z,11.27
2023-06-10T03:25:22.042Z,12.38
2023-06-10T03:27:52.355Z,11.68
2023-06-10T03:30:22.210Z,12.23
2023-06-10T03:32:52.839Z,12.27
2023-06-10T03:35:23.554Z,12.23
2023-06-10T03:37:56.087Z,12.20
2023-06-10T03:40:26.073Z,12.48
2023-06-10T03:42:56.036Z,11.70
2023-06-10T03:45:25.975Z,11.77
2023-06-10T03:47:56.979Z,11.45
2023-06-10T03:50:27.566Z,11.23
2023-06-10T03:53:00.219Z,12.07
2023-06-10T03:55:30.165Z,10.90
2023-06-10T03:58:00.177Z,11.10
2023-06-10T04:00:30.158Z,12.40
2023-06-10T04:03:00.133Z,11.80
2023-06-10T04:05:30.204Z,11.32
2023-06-10T04:08:02.888Z,12.00
2023-06-10T04:10:32.925Z,11.05
2023-06-10T04:13:03.018Z,11.38
2023-06-10T04:15:33.972Z,12.15
2023-06-10T04:18:04.698Z,11.75
2023-06-10T04:20:35.019Z,11.13
2023-06-10T04:23:07.899Z,12.10
2023-06-10T04:25:38.215Z,10.70
2023-06-10T04:28:08.407Z,11.15
2023-06-10T04:30:38.323Z,11.70
2023-06-10T04:33:10.574Z,11.18
2023-06-10T04:35:40.574Z,11.55
2023-06-10T04:38:14.034Z,11.63
2023-06-10T04:40:44.319Z,10.60
2023-06-10T04:43:14.669Z,11.32
2023-06-10T04:45:46.129Z,10.63
2023-06-10T04:48:16.444Z,9.90
2023-06-10T04:50:46.382Z,10.30
2023-06-10T04:53:18.985Z,10.80
2023-06-10T04:55:49.570Z,10.32
2023-06-10T04:58:19.833Z,10.68
2023-06-10T05:00:49.789Z,9.82
2023-06-10T05:03:19.846Z,10.98
2023-06-10T05:05:49.905Z,10.23
2023-06-10T05:08:22.405Z,10.45
2023-06-10T05:10:52.309Z,9.70
2023-06-10T05:13:22.258Z,10.45
2023-06-10T05:15:52.197Z,9.85
2023-06-10T05:18:22.623Z,9.48
2023-06-10T05:20:52.799Z,9.48
2023-06-10T05:23:25.815Z,9.15
2023-06-10T05:25:55.771Z,9.23
2023-06-10T05:28:25.807Z,8.85
2023-06-10T05:30:55.791Z,8.50
2023-06-10T05:33:26.004Z,8.77
2023-06-10T05:35:56.307Z,7.93
2023-06-10T05:38:28.844Z,8.00
2023-06-10T05:41:00.212Z,8.30
2023-06-10T05:43:30.201Z,8.38
2023-06-10T05:46:00.268Z,8.38
2023-06-10T05:48:30.252Z,7.97
2023-06-10T05:51:00.177Z,7.93
2023-06-10T05:53:32.670Z,8.15
2023-06-10T05:56:02.619Z,7.55
2023-06-10T05:58:32.553Z,7.75
2023-06-10T06:01:02.602Z,8.00
2023-06-10T06:03:32.669Z,8.07
2023-06-10T06:06:02.622Z,7.35
2023-06-10T06:08:35.272Z,8.23
2023-06-10T06:11:05.223Z,8.30
2023-06-10T06:13:35.183Z,7.55
2023-06-10T06:16:05.181Z,7.55
2023-06-10T06:18:35.805Z,7.00
2023-06-10T06:21:08.388Z,7.20
2023-06-10T06:23:40.942Z,7.18
2023-06-10T06:26:11.004Z,7.15
2023-06-10T06:28:41.302Z,7.10
2023-06-10T06:31:13.658Z,6.32
2023-06-10T06:33:43.608Z,6.65
2023-06-10T06:36:13.477Z,6.10
2023-06-10T06:38:46.007Z,6.60
2023-06-10T06:41:16.016Z,6.82
2023-06-10T06:43:46.633Z,7.13
2023-06-10T06:46:18.141Z,7.05
2023-06-10T06:48:48.266Z,7.03
2023-06-10T06:51:18.322Z,6.70
2023-06-10T06:53:52.803Z,6.05
2023-06-10T06:56:22.702Z,6.45
2023-06-10T06:58:52.590Z,6.13
2023-06-10T07:01:22.682Z,5.82
2023-06-10T07:03:52.646Z,6.53
2023-06-10T07:06:22.565Z,6.55
2023-06-10T07:08:56.148Z,6.38
2023-06-10T07:11:26.675Z,6.18
2023-06-10T07:13:56.519Z,6.30
2023-06-10T07:16:26.700Z,6.40
2023-06-10T07:18:57.271Z,6.28
2023-06-10T07:21:27.337Z,6.40
2023-06-10T07:24:00.004Z,6.85
2023-06-10T07:26:30.032Z,5.82
2023-06-10T07:29:00.019Z,5.85
2023-06-10T07:31:30.261Z,5.93
2023-06-10T07:34:00.366Z,6.00
2023-06-10T07:36:30.811Z,5.80
2023-06-10T07:39:03.367Z,5.50
2023-06-10T07:41:33.368Z,5.68
2023-06-10T07:44:04.131Z,6.05
2023-06-10T07:46:34.171Z,5.40
2023-06-10T07:49:04.073Z,6.22
2023-06-10T07:51:34.062Z,5.88
2023-06-10T07:54:06.792Z,5.22
2023-06-10T07:56:37.034Z,5.30
2023-06-10T07:59:06.968Z,4.93
2023-06-10T08:01:38.620Z,5.43
2023-06-10T08:04:09.195Z,5.63
2023-06-10T08:06:39.848Z,5.75
2023-06-10T08:09:12.420Z,5.40
2023-06-10T08:11:42.393Z,5.13
2023-06-10T08:14:12.469Z,5.30
2023-06-10T08:16:42.633Z,5.45
2023-06-10T08:19:12.891Z,5.25
2023-06-10T08:21:43.050Z,5.38
2023-06-10T08:24:17.771Z,5.28
2023-06-10T08:26:47.846Z,5.40
2023-06-10T08:29:18.008Z,6.15
2023-06-10T08:31:48.882Z,5.57
2023-06-10T08:34:19.329Z,5.85
2023-06-10T08:36:54.293Z,5.30
2023-06-10T08:39:26.934Z,5.68
2023-06-10T08:42:08.782Z,5.60
2023-06-10T08:44:41.472Z,5.53
2023-06-10T08:47:17.724Z,5.40
2023-06-10T08:49:49.411Z,5.63
2023-06-10T08:52:21.575Z,5.95
2023-06-10T08:55:00.769Z,5.47
2023-06-10T08:57:32.035Z,5.05
2023-06-10T09:00:02.460Z,5.32
2023-06-10T09:02:33.039Z,6.00
2023-06-10T09:05:04.323Z,5.70
2023-06-10T09:07:37.337Z,5.60
2023-06-10T09:10:11.058Z,5.72
2023-06-10T09:12:41.683Z,5.88
2023-06-10T09:15:13.643Z,6.25
2023-06-10T09:17:44.138Z,6.18
2023-06-10T09:20:16.853Z,5.80
2023-06-10T09:22:47.487Z,6.28
2023-06-10T09:25:20.052Z,5.80
2023-06-10T09:27:52.280Z,5.70
2023-06-10T09:30:33.605Z,5.70
2023-06-10T09:33:05.341Z,5.88
2023-06-10T09:35:35.433Z,5.90
2023-06-10T09:38:07.126Z,5.78
2023-06-10T09:40:53.126Z,6.05
2023-06-10T09:43:23.237Z,6.25
2023-06-10T09:45:54.581Z,5.57
2023-06-10T09:48:25.090Z,6.30
2023-06-10T09:50:59.233Z,6.20
2023-06-10T09:53:29.522Z,6.30
2023-06-10T09:56:02.196Z,6.07
2023-06-10T09:58:39.344Z,5.97
2023-06-10T10:01:09.801Z,6.47
2023-06-10T10:03:48.309Z,5.78
2023-06-10T10:06:20.009Z,6.28
2023-06-10T10:08:52.402Z,6.40
2023-06-10T10:11:27.496Z,6.45
2023-06-10T10:14:00.014Z,6.30
2023-06-10T10:16:39.858Z,6.63
2023-06-10T10:19:14.178Z,6.65
2023-06-10T10:21:48.683Z,5.82
2023-06-10T10:24:23.335Z,6.90
2023-06-10T10:27:02.652Z,7.03
2023-06-10T10:29:37.411Z,6.57
2023-06-10T10:32:09.916Z,6.60
2023-06-10T10:34:46.531Z,6.88
2023-06-10T10:37:16.429Z,6.05
2023-06-10T10:39:47.035Z,6.15
2023-06-10T10:42:21.463Z,6.10
2023-06-10T10:44:51.709Z,6.60
2023-06-10T10:47:25.224Z,6.53
2023-06-10T10:50:00.347Z,6.28
2023-06-10T10:52:50.300Z,6.50
2023-06-10T10:55:20.288Z,6.35
2023-06-10T10:57:58.189Z,6.22
2023-06-10T11:00:35.005Z,6.30
2023-06-10T11:03:12.161Z,6.22
2023-06-10T11:05:45.952Z,6.00
2023-06-10T11:08:16.107Z,6.30
2023-06-10T11:10:55.843Z,6.40
2023-06-10T11:13:30.900Z,6.40
2023-06-10T11:16:02.596Z,6.10
2023-06-10T11:18:34.579Z,6.20
2023-06-10T11:21:06.570Z,6.28
2023-06-10T11:23:45.628Z,6.13
2023-06-10T11:26:17.649Z,6.15
2023-06-10T11:29:09.816Z,6.50
2023-06-10T11:31:45.496Z,5.60
2023-06-10T11:34:18.103Z,5.75
2023-06-10T11:36:49.144Z,7.18
2023-06-10T11:39:19.450Z,6.60
2023-06-10T11:41:49.782Z,6.05
2023-06-10T11:44:22.406Z,6.22
2023-06-10T11:46:53.861Z,6.30
2023-06-10T11:49:25.482Z,6.47
2023-06-10T11:51:56.048Z,6.47
2023-06-10T11:54:26.248Z,6.47
2023-06-10T11:57:01.782Z,6.25
2023-06-10T11:59:34.587Z,6.10
2023-06-10T12:02:04.685Z,7.32
2023-06-10T12:04:34.618Z,6.18
2023-06-10T12:07:04.551Z,6.75
2023-06-10T12:09:34.704Z,6.70
2023-06-10T12:12:07.097Z,6.18
2023-06-10T12:14:58.570Z,6.05
2023-06-10T12:17:40.981Z,6.30
2023-06-10T12:20:13.266Z,6.43
2023-06-10T12:22:44.158Z,6.45
2023-06-10T12:25:15.455Z,6.60
2023-06-10T12:27:54.949Z,6.70
2023-06-10T12:30:30.286Z,6.40
2023-06-10T12:33:00.840Z,6.53
2023-06-10T12:35:32.766Z,6.20
2023-06-10T12:38:05.698Z,6.50
2023-06-10T12:40:37.492Z,6.30
2023-06-10T12:43:07.933Z,6.75
2023-06-10T12:45:44.488Z,6.65
2023-06-10T12:48:15.882Z,6.82
2023-06-10T12:50:46.614Z,6.15
2023-06-10T12:53:16.724Z,7.60
2023-06-10T12:55:47.215Z,6.72
2023-06-10T12:58:17.479Z,6.95
2023-06-10T13:00:50.226Z,7.03
2023-06-10T13:03:20.240Z,6.45
2023-06-10T13:05:50.357Z,6.50
2023-06-10T13:08:20.411Z,7.35
2023-06-10T13:10:50.318Z,6.43
2023-06-10T13:13:20.354Z,7.00
2023-06-10T13:15:53.074Z,6.95
2023-06-10T13:18:23.354Z,6.70
2023-06-10T13:20:53.307Z,6.68
2023-06-10T13:23:23.330Z,6.93
2023-06-10T13:25:53.233Z,7.15
2023-06-10T13:28:23.222Z,6.63
2023-06-10T13:30:55.967Z,6.40
2023-06-10T13:33:26.001Z,7.30
2023-06-10T13:35:58.076Z,6.32
2023-06-10T13:38:28.026Z,6.57
2023-06-10T13:40:57.953Z,6.72
2023-06-10T13:43:27.979Z,7.10
2023-06-10T13:46:00.555Z,7.20
2023-06-10T13:48:30.514Z,6.88
2023-06-10T13:51:01.268Z,6.38
2023-06-10T13:53:31.168Z,7.00
2023-06-10T13:56:01.161Z,6.40
2023-06-10T13:58:31.165Z,6.90
2023-06-10T14:01:03.698Z,6.80
2023-06-10T14:03:33.766Z,6.80
2023-06-10T14:06:04.187Z,6.55
2023-06-10T14:08:34.216Z,6.10
2023-06-10T14:11:04.100Z,6.20
2023-06-10T14:13:34.976Z,6.93
2023-06-10T14:16:08.029Z,6.75
2023-06-10T14:18:38.054Z,6.85
2023-06-10T14:21:08.102Z,6.32
2023-06-10T14:23:38.158Z,6.28
2023-06-10T14:26:08.691Z,6.80
2023-06-10T14:28:38.691Z,6.20
2023-06-10T14:31:12.109Z,6.07
2023-06-10T14:33:43.696Z,6.70
2023-06-10T14:36:14.453Z,6.47
2023-06-10T14:38:44.559Z,6.68
2023-06-10T14:41:14.484Z,6.97
2023-06-10T14:43:44.508Z,6.25
2023-06-10T14:46:17.718Z,7.43
2023-06-10T14:48:47.905Z,7.25
2023-06-10T14:51:18.335Z,6.45
2023-06-10T14:53:48.234Z,6.63
2023-06-10T14:56:18.269Z,6.60
2023-06-10T14:58:51.019Z,6.32
2023-06-10T15:01:23.633Z,6.60
2023-06-10T15:03:53.529Z,5.90
2023-06-10T15:06:24.176Z,6.18
2023-06-10T15:08:54.295Z,6.72
2023-06-10T15:11:25.897Z,6.43
2023-06-10T15:13:55.882Z,6.65
2023-06-10T15:16:28.588Z,6.53
2023-06-10T15:18:59.185Z,7.00
2023-06-10T15:21:29.217Z,6.72
2023-06-10T15:23:59.195Z,6.80
2023-06-10T15:26:29.142Z,6.10
2023-06-10T15:28:59.266Z,6.60
2023-06-10T15:31:32.847Z,6.63
2023-06-10T15:34:03.221Z,6.20
2023-06-10T15:36:33.406Z,6.03
2023-06-10T15:39:08.136Z,6.45
2023-06-10T15:41:38.485Z,6.38
2023-06-10T15:44:08.566Z,6.72
2023-06-10T15:46:41.435Z,6.78
2023-06-10T15:49:11.582Z,8.90
2023-06-10T15:51:45.538Z,6.72
2023-06-10T15:54:19.081Z,6.95
2023-06-10T15:56:49.073Z,6.50
2023-06-10T15:59:19.551Z,5.90
2023-06-10T16:01:52.237Z,6.95
2023-06-10T16:04:22.246Z,6.22
2023-06-10T16:06:52.490Z,7.03
2023-06-10T16:09:22.550Z,6.75
2023-06-10T16:11:52.463Z,6.47
2023-06-10T16:14:22.614Z,6.75
2023-06-10T16:16:58.826Z,6.00
2023-06-10T16:19:28.879Z,6.25
2023-06-10T16:21:58.853Z,6.30
2023-06-10T16:24:28.911Z,6.38
2023-06-10T16:26:58.869Z,6.50
2023-06-10T16:29:30.044Z,6.30
2023-06-10T16:32:03.618Z,6.25
2023-06-10T16:34:33.961Z,6.10
2023-06-10T16:37:04.244Z,6.32
2023-06-10T16:39:34.142Z,6.65
2023-06-10T16:42:04.118Z,6.68
2023-06-10T16:44:34.059Z,7.00
2023-06-10T16:47:06.840Z,6.00
2023-06-10T16:49:37.635Z,6.47
2023-06-10T16:52:08.288Z,6.82
2023-06-10T16:54:38.214Z,6.30
2023-06-10T16:57:08.819Z,6.07
2023-06-10T16:59:38.743Z,6.35
2023-06-10T17:02:11.399Z,6.50
2023-06-10T17:04:41.390Z,5.80
2023-06-10T17:07:11.429Z,6.68
2023-06-10T17:09:41.334Z,7.03
2023-06-10T17:12:12.445Z,6.28
2023-06-10T17:14:42.299Z,6.13
2023-06-10T17:17:14.890Z,6.28
2023-06-10T17:19:44.904Z,6.13
2023-06-10T17:22:14.897Z,6.53
2023-06-10T17:24:44.921Z,6.47
2023-06-10T17:27:14.856Z,6.70
2023-06-10T17:29:44.815Z,6.65
2023-06-10T17:32:18.350Z,6.03
2023-06-10T17:34:48.236Z,5.82
2023-06-10T17:37:18.161Z,5.93
2023-06-10T17:39:48.050Z,6.70
2023-06-10T17:42:18.060Z,6.47
2023-06-10T17:44:48.001Z,6.85
2023-06-10T17:47:20.722Z,6.65
2023-06-10T17:49:50.616Z,6.50
2023-06-10T17:52:20.662Z,6.13
2023-06-10T17:54:52.545Z,5.60
2023-06-10T17:57:22.537Z,6.53
2023-06-10T17:59:52.448Z,5.90
2023-06-10T18:02:25.022Z,12.35
2023-06-10T18:04:54.946Z,15.70
2023-06-10T18:07:24.959Z,26.90
2023-06-10T18:09:54.869Z,8.75
2023-06-10T18:12:24.796Z,7.53
2023-06-10T18:14:54.769Z,6.88
2023-06-10T18:17:27.297Z,6.15
2023-06-10T18:19:57.352Z,6.38
2023-06-10T18:22:27.324Z,6.30
2023-06-10T18:24:57.402Z,6.47
2023-06-10T18:27:27.457Z,6.35
2023-06-10T18:29:57.358Z,6.35
2023-06-10T18:32:30.048Z,6.00
2023-06-10T18:35:00.023Z,6.07
2023-06-10T18:37:30.036Z,5.90
2023-06-10T18:40:02.767Z,14.60
2023-06-10T18:42:32.691Z,6.97
2023-06-10T18:45:02.619Z,6.75
2023-06-10T18:47:48.650Z,6.75
2023-06-10T18:50:25.846Z,6.30
2023-06-10T18:52:56.008Z,6.47
2023-06-10T18:55:26.060Z,7.20
2023-06-10T18:57:56.057Z,6.25
2023-06-10T19:00:26.090Z,6.32
2023-06-10T19:02:58.828Z,5.80
2023-06-10T19:05:28.872Z,6.40
2023-06-10T19:07:58.888Z,6.28
2023-06-10T19:10:29.606Z,7.15
2023-06-10T19:12:59.520Z,6.75
2023-06-10T19:15:29.554Z,7.40
2023-06-10T19:18:02.161Z,9.35
2023-06-10T19:20:32.079Z,10.95
2023-06-10T19:23:02.105Z,18.00
2023-06-10T19:25:41.818Z,9.82
2023-06-10T19:28:13.965Z,9.18
2023-06-10T19:30:43.915Z,12.98
2023-06-10T19:33:16.496Z,11.93
2023-06-10T19:35:46.669Z,12.32
2023-06-10T19:38:16.628Z,9.48
2023-06-10T19:40:46.591Z,13.98
2023-06-10T19:43:16.649Z,16.48
2023-06-10T19:45:46.882Z,14.20
2023-06-10T19:48:19.444Z,9.38
2023-06-10T19:50:49.378Z,9.23
2023-06-10T19:53:19.340Z,7.95
2023-06-10T19:55:49.894Z,7.55
2023-06-10T19:58:19.883Z,10.35
2023-06-10T20:00:49.775Z,10.45
2023-06-10T20:03:22.440Z,9.25
2023-06-10T20:05:52.591Z,7.63
2023-06-10T20:08:22.696Z,7.32
2023-06-10T20:10:52.610Z,9.43
2023-06-10T20:13:22.517Z,7.28
2023-06-10T20:15:53.473Z,8.07
2023-06-10T20:18:26.007Z,7.25
2023-06-10T20:20:55.970Z,7.15
2023-06-10T20:23:26.001Z,7.38
2023-06-10T20:25:56.700Z,7.38
2023-06-10T20:28:26.708Z,7.40
2023-06-10T20:30:56.608Z,7.32
2023-06-10T20:33:29.158Z,6.88
2023-06-10T20:35:59.097Z,6.78
2023-06-10T20:38:29.080Z,7.00
2023-06-10T20:40:59.033Z,7.65
2023-06-10T20:43:28.997Z,7.05
2023-06-10T20:45:58.932Z,7.32
2023-06-10T20:48:31.441Z,7.30
2023-06-10T20:51:01.606Z,7.10
2023-06-10T20:53:31.586Z,7.10
2023-06-10T20:56:02.425Z,7.10
2023-06-10T20:58:32.370Z,7.15
2023-06-10T21:01:02.476Z,6.82
2023-06-10T21:03:35.126Z,6.97
2023-06-10T21:06:06.863Z,7.72
2023-06-10T21:08:36.830Z,7.32
2023-06-10T21:11:06.956Z,7.25
2023-06-10T21:13:36.900Z,7.20
2023-06-10T21:16:06.992Z,6.72
2023-06-10T21:18:39.544Z,7.03
2023-06-10T21:21:09.483Z,7.10
2023-06-10T21:23:39.505Z,6.75
2023-06-10T21:26:09.442Z,7.25
2023-06-10T21:28:39.391Z,7.40
2023-06-10T21:31:09.388Z,7.10
2023-06-10T21:33:41.977Z,6.97
2023-06-10T21:36:11.943Z,7.03
2023-06-10T21:38:41.831Z,7.43
2023-06-10T21:41:12.291Z,6.88
2023-06-10T21:43:42.299Z,7.25
2023-06-10T21:46:12.333Z,6.88
2023-06-10T21:48:44.952Z,7.00
2023-06-10T21:51:14.911Z,7.05
2023-06-10T21:53:44.876Z,7.07
2023-06-10T21:56:15.038Z,7.53
2023-06-10T21:58:48.355Z,7.43
2023-06-10T22:01:19.393Z,7.53
2023-06-10T22:03:51.935Z,7.60
2023-06-10T22:06:21.989Z,7.60
2023-06-10T22:08:52.206Z,7.07
2023-06-10T22:11:22.995Z,7.07
2023-06-10T22:13:52.928Z,7.45
2023-06-10T22:16:23.045Z,7.70
2023-06-10T22:18:55.746Z,7.05
2023-06-10T22:21:25.675Z,7.40
2023-06-10T22:23:56.967Z,7.70
2023-06-10T22:26:36.899Z,7.05
2023-06-10T22:29:19.624Z,7.18
2023-06-10T22:31:49.899Z,7.60
2023-06-10T22:34:22.444Z,7.38
2023-06-10T22:36:52.569Z,7.18
2023-06-10T22:39:22.679Z,6.70
2023-06-10T22:41:52.588Z,7.97
2023-06-10T22:44:22.855Z,7.55
2023-06-10T22:46:52.871Z,7.53
2023-06-10T22:49:25.446Z,7.43
2023-06-10T22:51:55.488Z,7.57
2023-06-10T22:54:27.630Z,7.22
2023-06-10T22:56:57.766Z,7.13
2023-06-10T22:59:27.650Z,7.32
2023-06-10T23:01:57.744Z,7.70
2023-06-10T23:04:30.456Z,7.18
2023-06-10T23:07:00.414Z,7.43
2023-06-10T23:09:30.343Z,7.93
2023-06-10T23:12:00.255Z,7.45
2023-06-10T23:14:30.192Z,7.32
2023-06-10T23:17:00.126Z,7.68
2023-06-10T23:19:32.636Z,8.27
2023-06-10T23:22:02.858Z,7.50
2023-06-10T23:24:32.866Z,7.40
2023-06-10T23:27:04.175Z,7.68
2023-06-10T23:29:37.065Z,8.02
2023-06-10T23:32:10.260Z,8.70
2023-06-10T23:34:42.803Z,7.82
2023-06-10T23:37:13.852Z,7.70
2023-06-10T23:39:45.847Z,8.30
2023-06-10T23:42:15.905Z,8.20
2023-06-10T23:44:45.963Z,8.20
2023-06-10T23:47:15.844Z,7.80
2023-06-10T23:49:49.245Z,8.15
2023-06-10T23:52:19.356Z,8.10
2023-06-10T23:54:49.520Z,8.93
2023-06-10T23:57:21.254Z,7.60
2023-06-10T23:59:51.178Z,8.23
